Notice: Undefined index: language in /storage/ssd5/933/2892933/public_html/vam/index.php on line 25
JetGo Aerolínea Virtual

www.000webhost.com
 METAR AND TAF INFORMATION
METAR FOR SKUC
ADDS - METARS form results

(1955 UTC 21 July 2019)
Data provider http://aviationweather.gov/metar/data/
 
METAR text: SKUC 211900Z 07003KT 5000 DZ BKN015 25/25 A2989 RERA
Conditions at: SKUC (ARAUCA/SANTIAGO , CO) observed 1900 UTC 21 July 2019
Temperature: 25.0°C (77°F)
Dewpoint: 25.0°C (77°F) [RH = 100%]
Pressure (altimeter): 29.89 inches Hg (1012.3 mb)
Winds: from the ENE (70 degrees) at 3 MPH (3 knots; 1.5 m/s)
Visibility: 3 miles ( 5 km)
Ceiling: 1500 feet AGL
Clouds: broken clouds at 1500 feet AGL
Weather: DZ  (moderate drizzle)

 AIRPORT MAP

 RUNWAY INFORMATION
Runway 11 Runway length 6890 ft Runway width 98 ft
Runway elevation 420 ft Runway displaced threshold 0 ft Runway heading 98
Runway 29 Runway length 6890 ft Runway width 98 ft
Runway elevation 420 ft Runway displaced threshold 0 ft Runway heading 278

 AIRPORT FREQUENCIES
Type TWR Name TWR Frequency 118.1 MHZ

 AIRPORT NEAR NAVIGATION AIDS
Type VOR-DME Name Arauca Frequency 114000 KHZ



Powered by VAM for JetGo Virtual Airlines